sensor_id;sensor_type;location;lat;lon;timestamp;P1;durP1;ratioP1;P2;durP2;ratioP2
16113;SDS011;8161;-33.910;151.156;2022-07-03T00:02:18;16.20;;;2.65;;
16113;SDS011;8161;-33.910;151.156;2022-07-03T00:05:22;15.73;;;3.22;;
16113;SDS011;8161;-33.910;151.156;2022-07-03T00:14:29;11.48;;;2.25;;
16113;SDS011;8161;-33.910;151.156;2022-07-03T00:17:33;12.50;;;2.83;;
16113;SDS011;8161;-33.910;151.156;2022-07-03T00:20:33;13.73;;;2.75;;
16113;SDS011;8161;-33.910;151.156;2022-07-03T00:23:40;31.10;;;4.70;;
16113;SDS011;8161;-33.910;151.156;2022-07-03T00:26:50;26.75;;;4.38;;
16113;SDS011;8161;-33.910;151.156;2022-07-03T00:29:38;23.13;;;3.70;;
16113;SDS011;8161;-33.910;151.156;2022-07-03T00:32:28;21.38;;;4.25;;
16113;SDS011;8161;-33.910;151.156;2022-07-03T00:35:02;25.88;;;5.07;;
16113;SDS011;8161;-33.910;151.156;2022-07-03T00:37:48;26.60;;;5.00;;
16113;SDS011;8161;-33.910;151.156;2022-07-03T00:43:52;16.45;;;2.78;;
16113;SDS011;8161;-33.910;151.156;2022-07-03T00:46:31;27.38;;;4.97;;
16113;SDS011;8161;-33.910;151.156;2022-07-03T00:49:06;26.10;;;4.70;;
16113;SDS011;8161;-33.910;151.156;2022-07-03T00:58:37;21.45;;;3.75;;
16113;SDS011;8161;-33.910;151.156;2022-07-03T01:01:09;17.17;;;5.07;;
16113;SDS011;8161;-33.910;151.156;2022-07-03T01:04:03;18.65;;;3.10;;
16113;SDS011;8161;-33.910;151.156;2022-07-03T01:07:06;24.27;;;5.00;;
16113;SDS011;8161;-33.910;151.156;2022-07-03T01:12:54;23.58;;;3.78;;
16113;SDS011;8161;-33.910;151.156;2022-07-03T01:21:34;21.25;;;4.55;;
16113;SDS011;8161;-33.910;151.156;2022-07-03T01:30:47;23.63;;;4.25;;
16113;SDS011;8161;-33.910;151.156;2022-07-03T01:33:54;19.23;;;3.10;;
16113;SDS011;8161;-33.910;151.156;2022-07-03T01:36:31;21.75;;;3.05;;
16113;SDS011;8161;-33.910;151.156;2022-07-03T01:42:32;18.83;;;3.35;;
16113;SDS011;8161;-33.910;151.156;2022-07-03T01:45:21;18.92;;;2.80;;
16113;SDS011;8161;-33.910;151.156;2022-07-03T01:48:33;15.35;;;3.47;;
16113;SDS011;8161;-33.910;151.156;2022-07-03T01:51:28;16.65;;;3.55;;
16113;SDS011;8161;-33.910;151.156;2022-07-03T01:54:32;24.55;;;4.32;;
16113;SDS011;8161;-33.910;151.156;2022-07-03T01:57:36;23.65;;;3.40;;
16113;SDS011;8161;-33.910;151.156;2022-07-03T02:04:23;18.33;;;2.85;;
16113;SDS011;8161;-33.910;151.156;2022-07-03T02:07:17;16.38;;;3.33;;
16113;SDS011;8161;-33.910;151.156;2022-07-03T02:10:27;18.23;;;4.35;;
16113;SDS011;8161;-33.910;151.156;2022-07-03T02:13:17;19.02;;;3.63;;
16113;SDS011;8161;-33.910;151.156;2022-07-03T02:15:49;15.23;;;4.03;;
16113;SDS011;8161;-33.910;151.156;2022-07-03T02:22:11;20.20;;;3.88;;
16113;SDS011;8161;-33.910;151.156;2022-07-03T02:25:04;22.05;;;3.53;;
16113;SDS011;8161;-33.910;151.156;2022-07-03T02:37:07;21.17;;;3.83;;
16113;SDS011;8161;-33.910;151.156;2022-07-03T02:40:04;24.15;;;3.65;;
16113;SDS011;8161;-33.910;151.156;2022-07-03T02:57:40;24.00;;;5.18;;
16113;SDS011;8161;-33.910;151.156;2022-07-03T03:03:16;31.45;;;4.70;;
16113;SDS011;8161;-33.910;151.156;2022-07-03T03:09:31;27.88;;;5.20;;
16113;SDS011;8161;-33.910;151.156;2022-07-03T03:12:29;30.77;;;5.45;;
16113;SDS011;8161;-33.910;151.156;2022-07-03T03:15:33;28.85;;;5.50;;
16113;SDS011;8161;-33.910;151.156;2022-07-03T03:18:11;31.95;;;6.38;;
16113;SDS011;8161;-33.910;151.156;2022-07-03T03:21:17;35.47;;;5.75;;
16113;SDS011;8161;-33.910;151.156;2022-07-03T03:24:23;25.17;;;4.63;;
16113;SDS011;8161;-33.910;151.156;2022-07-03T03:33:42;27.48;;;5.15;;
16113;SDS011;8161;-33.910;151.156;2022-07-03T03:44:17;26.65;;;4.82;;
16113;SDS011;8161;-33.910;151.156;2022-07-03T03:47:39;27.42;;;4.07;;
16113;SDS011;8161;-33.910;151.156;2022-07-03T03:50:35;31.00;;;5.47;;
16113;SDS011;8161;-33.910;151.156;2022-07-03T03:56:23;32.70;;;4.78;;
16113;SDS011;8161;-33.910;151.156;2022-07-03T04:01:58;30.02;;;4.22;;
16113;SDS011;8161;-33.910;151.156;2022-07-03T04:05:05;29.30;;;4.13;;
16113;SDS011;8161;-33.910;151.156;2022-07-03T04:07:48;27.25;;;4.85;;
16113;SDS011;8161;-33.910;151.156;2022-07-03T04:14:21;33.00;;;6.07;;
16113;SDS011;8161;-33.910;151.156;2022-07-03T04:16:51;38.53;;;5.68;;
16113;SDS011;8161;-33.910;151.156;2022-07-03T04:19:18;31.65;;;6.15;;
16113;SDS011;8161;-33.910;151.156;2022-07-03T04:21:55;30.55;;;4.72;;
16113;SDS011;8161;-33.910;151.156;2022-07-03T04:24:41;27.52;;;4.03;;
16113;SDS011;8161;-33.910;151.156;2022-07-03T04:27:13;30.73;;;4.70;;
16113;SDS011;8161;-33.910;151.156;2022-07-03T04:33:08;27.27;;;4.20;;
16113;SDS011;8161;-33.910;151.156;2022-07-03T04:36:13;30.85;;;5.00;;
16113;SDS011;8161;-33.910;151.156;2022-07-03T04:38:56;29.48;;;5.55;;
16113;SDS011;8161;-33.910;151.156;2022-07-03T04:41:28;35.13;;;5.85;;
16113;SDS011;8161;-33.910;151.156;2022-07-03T04:43:55;22.27;;;5.05;;
16113;SDS011;8161;-33.910;151.156;2022-07-03T04:46:55;29.38;;;5.80;;
16113;SDS011;8161;-33.910;151.156;2022-07-03T04:49:39;32.20;;;4.80;;
16113;SDS011;8161;-33.910;151.156;2022-07-03T04:52:09;27.60;;;4.68;;
16113;SDS011;8161;-33.910;151.156;2022-07-03T04:54:58;26.75;;;4.32;;
16113;SDS011;8161;-33.910;151.156;2022-07-03T04:58:02;24.27;;;4.07;;
16113;SDS011;8161;-33.910;151.156;2022-07-03T05:04:22;18.52;;;3.92;;
16113;SDS011;8161;-33.910;151.156;2022-07-03T05:10:14;25.77;;;3.35;;
16113;SDS011;8161;-33.910;151.156;2022-07-03T05:13:10;24.85;;;3.85;;
16113;SDS011;8161;-33.910;151.156;2022-07-03T05:22:57;25.38;;;3.65;;
16113;SDS011;8161;-33.910;151.156;2022-07-03T05:25:31;28.40;;;5.10;;
16113;SDS011;8161;-33.910;151.156;2022-07-03T05:28:00;21.42;;;3.42;;
16113;SDS011;8161;-33.910;151.156;2022-07-03T05:31:23;26.48;;;3.50;;
16113;SDS011;8161;-33.910;151.156;2022-07-03T05:33:51;34.92;;;3.53;;
16113;SDS011;8161;-33.910;151.156;2022-07-03T05:37:03;19.33;;;3.30;;
16113;SDS011;8161;-33.910;151.156;2022-07-03T05:39:51;20.60;;;2.95;;
16113;SDS011;8161;-33.910;151.156;2022-07-03T05:42:47;25.70;;;4.65;;
16113;SDS011;8161;-33.910;151.156;2022-07-03T05:54:55;30.10;;;3.50;;
16113;SDS011;8161;-33.910;151.156;2022-07-03T05:57:29;26.45;;;3.90;;
16113;SDS011;8161;-33.910;151.156;2022-07-03T06:00:35;21.95;;;3.80;;
16113;SDS011;8161;-33.910;151.156;2022-07-03T06:03:23;21.38;;;3.55;;
16113;SDS011;8161;-33.910;151.156;2022-07-03T06:09:12;21.45;;;3.65;;
16113;SDS011;8161;-33.910;151.156;2022-07-03T06:12:19;21.95;;;4.30;;
16113;SDS011;8161;-33.910;151.156;2022-07-03T06:21:09;24.30;;;4.30;;
16113;SDS011;8161;-33.910;151.156;2022-07-03T06:23:54;33.60;;;5.90;;
16113;SDS011;8161;-33.910;151.156;2022-07-03T06:26:22;25.13;;;4.35;;
16113;SDS011;8161;-33.910;151.156;2022-07-03T06:28:52;19.23;;;3.78;;
16113;SDS011;8161;-33.910;151.156;2022-07-03T06:31:20;30.00;;;3.78;;
16113;SDS011;8161;-33.910;151.156;2022-07-03T06:33:50;26.95;;;4.70;;
16113;SDS011;8161;-33.910;151.156;2022-07-03T06:45:17;31.15;;;5.07;;
16113;SDS011;8161;-33.910;151.156;2022-07-03T06:54:10;34.60;;;4.93;;
16113;SDS011;8161;-33.910;151.156;2022-07-03T06:56:38;31.10;;;4.38;;
16113;SDS011;8161;-33.910;151.156;2022-07-03T06:59:34;24.48;;;3.78;;
16113;SDS011;8161;-33.910;151.156;2022-07-03T07:02:02;30.25;;;4.40;;
16113;SDS011;8161;-33.910;151.156;2022-07-03T07:04:37;23.70;;;3.03;;
16113;SDS011;8161;-33.910;151.156;2022-07-03T07:07:23;23.63;;;4.32;;
16113;SDS011;8161;-33.910;151.156;2022-07-03T07:13:22;17.88;;;3.55;;
16113;SDS011;8161;-33.910;151.156;2022-07-03T07:16:08;20.90;;;3.00;;
16113;SDS011;8161;-33.910;151.156;2022-07-03T07:23:05;26.85;;;3.58;;
16113;SDS011;8161;-33.910;151.156;2022-07-03T07:25:33;18.67;;;3.05;;
16113;SDS011;8161;-33.910;151.156;2022-07-03T07:28:04;16.42;;;2.75;;
16113;SDS011;8161;-33.910;151.156;2022-07-03T07:34:51;23.95;;;3.30;;
16113;SDS011;8161;-33.910;151.156;2022-07-03T07:37:49;12.68;;;2.90;;
16113;SDS011;8161;-33.910;151.156;2022-07-03T07:40:34;21.98;;;3.97;;
16113;SDS011;8161;-33.910;151.156;2022-07-03T07:43:20;16.15;;;3.13;;
16113;SDS011;8161;-33.910;151.156;2022-07-03T07:45:53;20.38;;;4.20;;
16113;SDS011;8161;-33.910;151.156;2022-07-03T07:48:21;19.77;;;3.22;;
16113;SDS011;8161;-33.910;151.156;2022-07-03T07:54:17;21.88;;;3.28;;
16113;SDS011;8161;-33.910;151.156;2022-07-03T07:56:44;15.77;;;2.90;;
16113;SDS011;8161;-33.910;151.156;2022-07-03T08:02:44;23.85;;;4.50;;
16113;SDS011;8161;-33.910;151.156;2022-07-03T08:05:31;21.50;;;3.10;;
16113;SDS011;8161;-33.910;151.156;2022-07-03T08:08:16;21.35;;;3.85;;
16113;SDS011;8161;-33.910;151.156;2022-07-03T08:11:05;25.23;;;3.95;;
16113;SDS011;8161;-33.910;151.156;2022-07-03T08:13:56;22.23;;;3.47;;
16113;SDS011;8161;-33.910;151.156;2022-07-03T08:16:25;26.35;;;4.15;;
16113;SDS011;8161;-33.910;151.156;2022-07-03T08:22:38;21.30;;;3.67;;
16113;SDS011;8161;-33.910;151.156;2022-07-03T08:25:08;19.25;;;3.25;;
16113;SDS011;8161;-33.910;151.156;2022-07-03T08:27:36;19.42;;;3.00;;
16113;SDS011;8161;-33.910;151.156;2022-07-03T08:30:41;20.77;;;3.50;;
16113;SDS011;8161;-33.910;151.156;2022-07-03T08:33:29;18.00;;;4.20;;
16113;SDS011;8161;-33.910;151.156;2022-07-03T08:39:17;15.32;;;3.38;;
16113;SDS011;8161;-33.910;151.156;2022-07-03T08:42:45;16.20;;;2.38;;
16113;SDS011;8161;-33.910;151.156;2022-07-03T08:45:16;17.92;;;2.25;;
16113;SDS011;8161;-33.910;151.156;2022-07-03T08:47:50;16.35;;;2.97;;
16113;SDS011;8161;-33.910;151.156;2022-07-03T08:50:19;17.60;;;2.83;;
16113;SDS011;8161;-33.910;151.156;2022-07-03T08:56:33;17.98;;;2.70;;
16113;SDS011;8161;-33.910;151.156;2022-07-03T08:59:04;20.15;;;3.10;;
16113;SDS011;8161;-33.910;151.156;2022-07-03T09:02:13;21.95;;;3.28;;
16113;SDS011;8161;-33.910;151.156;2022-07-03T09:05:16;20.38;;;4.00;;
16113;SDS011;8161;-33.910;151.156;2022-07-03T09:11:06;21.45;;;3.20;;
16113;SDS011;8161;-33.910;151.156;2022-07-03T09:13:35;21.52;;;4.03;;
16113;SDS011;8161;-33.910;151.156;2022-07-03T09:16:14;15.20;;;3.53;;
16113;SDS011;8161;-33.910;151.156;2022-07-03T09:18:43;27.23;;;3.72;;
16113;SDS011;8161;-33.910;151.156;2022-07-03T09:27:17;21.92;;;3.30;;
16113;SDS011;8161;-33.910;151.156;2022-07-03T09:30:07;16.92;;;2.83;;
16113;SDS011;8161;-33.910;151.156;2022-07-03T09:33:19;23.48;;;3.03;;
16113;SDS011;8161;-33.910;151.156;2022-07-03T09:36:48;23.38;;;3.83;;
16113;SDS011;8161;-33.910;151.156;2022-07-03T09:43:35;17.80;;;3.45;;
16113;SDS011;8161;-33.910;151.156;2022-07-03T09:47:04;24.17;;;3.78;;
16113;SDS011;8161;-33.910;151.156;2022-07-03T09:50:38;25.70;;;3.88;;
16113;SDS011;8161;-33.910;151.156;2022-07-03T09:54:00;19.25;;;3.65;;
16113;SDS011;8161;-33.910;151.156;2022-07-03T10:01:50;30.83;;;4.10;;
16113;SDS011;8161;-33.910;151.156;2022-07-03T10:11:13;15.25;;;4.07;;
16113;SDS011;8161;-33.910;151.156;2022-07-03T10:14:13;27.23;;;3.53;;
16113;SDS011;8161;-33.910;151.156;2022-07-03T10:17:49;21.65;;;3.50;;
16113;SDS011;8161;-33.910;151.156;2022-07-03T10:20:22;16.08;;;3.17;;
16113;SDS011;8161;-33.910;151.156;2022-07-03T10:23:21;24.45;;;4.25;;
16113;SDS011;8161;-33.910;151.156;2022-07-03T10:26:09;20.80;;;3.95;;
16113;SDS011;8161;-33.910;151.156;2022-07-03T10:28:47;24.30;;;3.78;;
16113;SDS011;8161;-33.910;151.156;2022-07-03T10:31:59;26.55;;;5.03;;
16113;SDS011;8161;-33.910;151.156;2022-07-03T10:34:27;18.80;;;4.05;;
16113;SDS011;8161;-33.910;151.156;2022-07-03T10:37:06;20.98;;;4.00;;
16113;SDS011;8161;-33.910;151.156;2022-07-03T10:43:06;27.23;;;4.38;;
16113;SDS011;8161;-33.910;151.156;2022-07-03T10:52:01;22.95;;;4.03;;
16113;SDS011;8161;-33.910;151.156;2022-07-03T10:58:19;30.15;;;6.80;;
16113;SDS011;8161;-33.910;151.156;2022-07-03T11:01:26;23.45;;;4.43;;
16113;SDS011;8161;-33.910;151.156;2022-07-03T11:10:40;15.80;;;3.22;;
16113;SDS011;8161;-33.910;151.156;2022-07-03T11:13:10;31.73;;;4.93;;
16113;SDS011;8161;-33.910;151.156;2022-07-03T11:16:24;20.35;;;3.35;;
16113;SDS011;8161;-33.910;151.156;2022-07-03T11:19:12;30.52;;;4.00;;
16113;SDS011;8161;-33.910;151.156;2022-07-03T11:22:08;21.70;;;4.10;;
16113;SDS011;8161;-33.910;151.156;2022-07-03T11:25:10;16.08;;;3.72;;
16113;SDS011;8161;-33.910;151.156;2022-07-03T11:27:43;28.30;;;4.82;;
16113;SDS011;8161;-33.910;151.156;2022-07-03T11:36:34;35.38;;;4.20;;
16113;SDS011;8161;-33.910;151.156;2022-07-03T11:39:09;28.73;;;3.92;;
16113;SDS011;8161;-33.910;151.156;2022-07-03T11:44:48;26.58;;;4.45;;
16113;SDS011;8161;-33.910;151.156;2022-07-03T11:47:33;38.50;;;4.82;;
16113;SDS011;8161;-33.910;151.156;2022-07-03T11:50:07;34.78;;;5.10;;
16113;SDS011;8161;-33.910;151.156;2022-07-03T11:59:08;28.40;;;3.95;;
16113;SDS011;8161;-33.910;151.156;2022-07-03T12:02:23;31.55;;;4.72;;
16113;SDS011;8161;-33.910;151.156;2022-07-03T12:05:36;23.45;;;4.55;;
16113;SDS011;8161;-33.910;151.156;2022-07-03T12:08:50;29.60;;;5.05;;
16113;SDS011;8161;-33.910;151.156;2022-07-03T12:18:40;30.75;;;5.05;;
16113;SDS011;8161;-33.910;151.156;2022-07-03T12:21:35;25.35;;;4.45;;
16113;SDS011;8161;-33.910;151.156;2022-07-03T12:31:10;27.92;;;4.15;;
16113;SDS011;8161;-33.910;151.156;2022-07-03T12:37:38;25.67;;;3.70;;
16113;SDS011;8161;-33.910;151.156;2022-07-03T12:43:41;24.35;;;4.18;;
16113;SDS011;8161;-33.910;151.156;2022-07-03T12:47:27;19.85;;;3.85;;
16113;SDS011;8161;-33.910;151.156;2022-07-03T12:55:50;16.65;;;3.30;;
16113;SDS011;8161;-33.910;151.156;2022-07-03T12:58:42;19.55;;;3.28;;
16113;SDS011;8161;-33.910;151.156;2022-07-03T13:02:04;28.10;;;3.83;;
16113;SDS011;8161;-33.910;151.156;2022-07-03T13:05:13;23.00;;;3.40;;
16113;SDS011;8161;-33.910;151.156;2022-07-03T13:07:42;23.45;;;3.95;;
16113;SDS011;8161;-33.910;151.156;2022-07-03T13:10:30;25.08;;;4.70;;
16113;SDS011;8161;-33.910;151.156;2022-07-03T13:13:02;21.08;;;4.05;;
16113;SDS011;8161;-33.910;151.156;2022-07-03T13:16:23;20.48;;;3.47;;
16113;SDS011;8161;-33.910;151.156;2022-07-03T13:19:01;19.63;;;3.50;;
16113;SDS011;8161;-33.910;151.156;2022-07-03T13:21:45;15.85;;;3.55;;
16113;SDS011;8161;-33.910;151.156;2022-07-03T13:24:20;20.00;;;3.60;;
16113;SDS011;8161;-33.910;151.156;2022-07-03T13:27:13;19.60;;;3.33;;
16113;SDS011;8161;-33.910;151.156;2022-07-03T13:30:22;15.70;;;3.10;;
16113;SDS011;8161;-33.910;151.156;2022-07-03T13:33:42;18.55;;;3.13;;
16113;SDS011;8161;-33.910;151.156;2022-07-03T13:36:09;18.90;;;3.33;;
16113;SDS011;8161;-33.910;151.156;2022-07-03T13:38:53;17.75;;;2.97;;
16113;SDS011;8161;-33.910;151.156;2022-07-03T13:41:38;24.50;;;3.90;;
16113;SDS011;8161;-33.910;151.156;2022-07-03T13:47:54;24.45;;;3.90;;
16113;SDS011;8161;-33.910;151.156;2022-07-03T13:57:56;21.30;;;3.33;;
16113;SDS011;8161;-33.910;151.156;2022-07-03T14:04:20;28.00;;;3.85;;
16113;SDS011;8161;-33.910;151.156;2022-07-03T14:10:22;25.92;;;4.03;;
16113;SDS011;8161;-33.910;151.156;2022-07-03T14:12:57;30.50;;;5.07;;
16113;SDS011;8161;-33.910;151.156;2022-07-03T14:18:46;24.63;;;3.90;;
16113;SDS011;8161;-33.910;151.156;2022-07-03T14:21:15;27.48;;;5.00;;
16113;SDS011;8161;-33.910;151.156;2022-07-03T14:24:01;32.63;;;4.50;;
16113;SDS011;8161;-33.910;151.156;2022-07-03T14:27:14;29.95;;;4.15;;
16113;SDS011;8161;-33.910;151.156;2022-07-03T14:30:04;24.17;;;4.60;;
16113;SDS011;8161;-33.910;151.156;2022-07-03T14:33:04;28.23;;;4.35;;
16113;SDS011;8161;-33.910;151.156;2022-07-03T14:36:17;25.00;;;4.03;;
16113;SDS011;8161;-33.910;151.156;2022-07-03T14:38:54;33.72;;;5.55;;
16113;SDS011;8161;-33.910;151.156;2022-07-03T14:44:08;24.23;;;4.32;;
16113;SDS011;8161;-33.910;151.156;2022-07-03T14:46:35;24.90;;;4.28;;
16113;SDS011;8161;-33.910;151.156;2022-07-03T14:49:33;31.13;;;5.40;;
16113;SDS011;8161;-33.910;151.156;2022-07-03T14:52:33;45.25;;;6.40;;
16113;SDS011;8161;-33.910;151.156;2022-07-03T14:56:03;33.17;;;3.72;;
16113;SDS011;8161;-33.910;151.156;2022-07-03T14:59:10;23.63;;;3.47;;
16113;SDS011;8161;-33.910;151.156;2022-07-03T15:05:13;23.33;;;3.25;;
16113;SDS011;8161;-33.910;151.156;2022-07-03T15:10:26;27.50;;;4.32;;
16113;SDS011;8161;-33.910;151.156;2022-07-03T15:13:15;27.25;;;4.03;;
16113;SDS011;8161;-33.910;151.156;2022-07-03T15:15:48;17.67;;;2.97;;
16113;SDS011;8161;-33.910;151.156;2022-07-03T15:18:36;15.77;;;3.22;;
16113;SDS011;8161;-33.910;151.156;2022-07-03T15:21:08;21.20;;;3.28;;
16113;SDS011;8161;-33.910;151.156;2022-07-03T15:23:57;26.67;;;4.82;;
16113;SDS011;8161;-33.910;151.156;2022-07-03T15:27:30;20.15;;;3.65;;
16113;SDS011;8161;-33.910;151.156;2022-07-03T15:30:48;18.00;;;3.22;;
16113;SDS011;8161;-33.910;151.156;2022-07-03T15:33:18;18.17;;;3.17;;
16113;SDS011;8161;-33.910;151.156;2022-07-03T15:35:49;19.23;;;2.85;;
16113;SDS011;8161;-33.910;151.156;2022-07-03T15:53:35;26.45;;;4.30;;
16113;SDS011;8161;-33.910;151.156;2022-07-03T15:56:42;24.45;;;3.75;;
16113;SDS011;8161;-33.910;151.156;2022-07-03T16:00:16;32.30;;;3.42;;
16113;SDS011;8161;-33.910;151.156;2022-07-03T16:03:27;23.88;;;3.42;;
16113;SDS011;8161;-33.910;151.156;2022-07-03T16:06:03;22.50;;;3.53;;
16113;SDS011;8161;-33.910;151.156;2022-07-03T16:08:48;28.00;;;4.45;;
16113;SDS011;8161;-33.910;151.156;2022-07-03T16:12:04;30.50;;;3.47;;
16113;SDS011;8161;-33.910;151.156;2022-07-03T16:15:15;21.42;;;3.25;;
16113;SDS011;8161;-33.910;151.156;2022-07-03T16:18:12;26.98;;;4.03;;
16113;SDS011;8161;-33.910;151.156;2022-07-03T16:23:51;19.38;;;3.10;;
16113;SDS011;8161;-33.910;151.156;2022-07-03T16:26:41;22.55;;;2.95;;
16113;SDS011;8161;-33.910;151.156;2022-07-03T16:29:31;21.63;;;4.55;;
16113;SDS011;8161;-33.910;151.156;2022-07-03T16:32:37;19.55;;;3.67;;
16113;SDS011;8161;-33.910;151.156;2022-07-03T16:35:52;34.97;;;3.53;;
16113;SDS011;8161;-33.910;151.156;2022-07-03T16:42:43;20.20;;;4.13;;
16113;SDS011;8161;-33.910;151.156;2022-07-03T16:45:51;22.23;;;3.28;;
16113;SDS011;8161;-33.910;151.156;2022-07-03T16:48:43;22.98;;;2.95;;
16113;SDS011;8161;-33.910;151.156;2022-07-03T16:51:39;27.73;;;3.42;;
16113;SDS011;8161;-33.910;151.156;2022-07-03T16:54:37;17.35;;;3.00;;
16113;SDS011;8161;-33.910;151.156;2022-07-03T17:00:13;17.98;;;3.03;;
16113;SDS011;8161;-33.910;151.156;2022-07-03T17:06:05;19.40;;;3.88;;
16113;SDS011;8161;-33.910;151.156;2022-07-03T17:09:06;19.40;;;2.97;;
16113;SDS011;8161;-33.910;151.156;2022-07-03T17:11:52;25.10;;;3.20;;
16113;SDS011;8161;-33.910;151.156;2022-07-03T17:17:30;20.08;;;4.57;;
16113;SDS011;8161;-33.910;151.156;2022-07-03T17:26:22;19.55;;;3.33;;
16113;SDS011;8161;-33.910;151.156;2022-07-03T17:29:12;27.02;;;2.72;;
16113;SDS011;8161;-33.910;151.156;2022-07-03T17:32:20;14.35;;;3.00;;
16113;SDS011;8161;-33.910;151.156;2022-07-03T17:35:24;13.55;;;2.88;;
16113;SDS011;8161;-33.910;151.156;2022-07-03T17:38:32;19.98;;;3.45;;
16113;SDS011;8161;-33.910;151.156;2022-07-03T17:41:25;28.10;;;3.22;;
16113;SDS011;8161;-33.910;151.156;2022-07-03T17:44:22;16.90;;;3.78;;
16113;SDS011;8161;-33.910;151.156;2022-07-03T17:47:11;19.55;;;3.53;;
16113;SDS011;8161;-33.910;151.156;2022-07-03T17:49:40;16.60;;;2.33;;
16113;SDS011;8161;-33.910;151.156;2022-07-03T17:52:47;14.07;;;2.15;;
16113;SDS011;8161;-33.910;151.156;2022-07-03T17:55:16;13.00;;;2.47;;
16113;SDS011;8161;-33.910;151.156;2022-07-03T17:57:47;15.32;;;2.28;;
16113;SDS011;8161;-33.910;151.156;2022-07-03T18:00:35;15.05;;;2.92;;
16113;SDS011;8161;-33.910;151.156;2022-07-03T18:03:22;15.52;;;2.45;;
16113;SDS011;8161;-33.910;151.156;2022-07-03T18:06:28;13.15;;;2.53;;
16113;SDS011;8161;-33.910;151.156;2022-07-03T18:15:08;21.48;;;3.40;;
16113;SDS011;8161;-33.910;151.156;2022-07-03T18:18:05;14.43;;;2.60;;
16113;SDS011;8161;-33.910;151.156;2022-07-03T18:21:06;14.75;;;2.28;;
16113;SDS011;8161;-33.910;151.156;2022-07-03T18:23:54;15.75;;;2.17;;
16113;SDS011;8161;-33.910;151.156;2022-07-03T18:34:50;14.77;;;2.78;;
16113;SDS011;8161;-33.910;151.156;2022-07-03T18:40:07;14.70;;;2.63;;
16113;SDS011;8161;-33.910;151.156;2022-07-03T18:42:40;15.45;;;2.20;;
16113;SDS011;8161;-33.910;151.156;2022-07-03T18:48:49;23.85;;;3.00;;
16113;SDS011;8161;-33.910;151.156;2022-07-03T18:57:28;19.58;;;2.72;;
16113;SDS011;8161;-33.910;151.156;2022-07-03T19:00:34;22.35;;;3.47;;
16113;SDS011;8161;-33.910;151.156;2022-07-03T19:03:25;22.70;;;3.35;;
16113;SDS011;8161;-33.910;151.156;2022-07-03T19:06:09;19.17;;;2.45;;
16113;SDS011;8161;-33.910;151.156;2022-07-03T19:09:07;19.83;;;2.83;;
16113;SDS011;8161;-33.910;151.156;2022-07-03T19:11:45;16.83;;;2.75;;
16113;SDS011;8161;-33.910;151.156;2022-07-03T19:14:37;15.40;;;3.55;;
16113;SDS011;8161;-33.910;151.156;2022-07-03T19:17:28;15.20;;;2.65;;
16113;SDS011;8161;-33.910;151.156;2022-07-03T19:23:00;13.23;;;2.40;;
16113;SDS011;8161;-33.910;151.156;2022-07-03T19:26:04;10.95;;;1.90;;
16113;SDS011;8161;-33.910;151.156;2022-07-03T19:28:52;16.73;;;2.55;;
16113;SDS011;8161;-33.910;151.156;2022-07-03T19:31:43;18.25;;;4.07;;
16113;SDS011;8161;-33.910;151.156;2022-07-03T19:37:30;11.48;;;2.50;;
16113;SDS011;8161;-33.910;151.156;2022-07-03T19:50:16;8.68;;;2.15;;
16113;SDS011;8161;-33.910;151.156;2022-07-03T19:53:00;22.20;;;3.03;;
16113;SDS011;8161;-33.910;151.156;2022-07-03T19:56:20;12.63;;;2.97;;
16113;SDS011;8161;-33.910;151.156;2022-07-03T20:05:03;13.80;;;2.85;;
16113;SDS011;8161;-33.910;151.156;2022-07-03T20:11:05;17.55;;;2.38;;
16113;SDS011;8161;-33.910;151.156;2022-07-03T20:14:28;20.45;;;3.45;;
16113;SDS011;8161;-33.910;151.156;2022-07-03T20:17:34;20.05;;;3.03;;
16113;SDS011;8161;-33.910;151.156;2022-07-03T20:20:58;19.00;;;3.20;;
16113;SDS011;8161;-33.910;151.156;2022-07-03T20:23:41;22.13;;;2.95;;
16113;SDS011;8161;-33.910;151.156;2022-07-03T20:33:35;13.82;;;2.33;;
16113;SDS011;8161;-33.910;151.156;2022-07-03T20:36:03;17.67;;;2.78;;
16113;SDS011;8161;-33.910;151.156;2022-07-03T20:39:15;21.40;;;3.25;;
16113;SDS011;8161;-33.910;151.156;2022-07-03T20:41:44;17.50;;;2.40;;
16113;SDS011;8161;-33.910;151.156;2022-07-03T20:44:36;19.75;;;2.72;;
16113;SDS011;8161;-33.910;151.156;2022-07-03T20:47:09;25.33;;;3.10;;
16113;SDS011;8161;-33.910;151.156;2022-07-03T20:49:54;22.98;;;3.88;;
16113;SDS011;8161;-33.910;151.156;2022-07-03T20:52:27;18.33;;;3.25;;
16113;SDS011;8161;-33.910;151.156;2022-07-03T21:10:57;17.10;;;3.58;;
16113;SDS011;8161;-33.910;151.156;2022-07-03T21:13:44;19.88;;;3.50;;
16113;SDS011;8161;-33.910;151.156;2022-07-03T21:19:24;10.23;;;2.20;;
16113;SDS011;8161;-33.910;151.156;2022-07-03T21:21:52;18.58;;;3.65;;
16113;SDS011;8161;-33.910;151.156;2022-07-03T21:24:47;8.82;;;2.00;;
16113;SDS011;8161;-33.910;151.156;2022-07-03T21:27:40;18.67;;;2.25;;
16113;SDS011;8161;-33.910;151.156;2022-07-03T21:30:07;15.40;;;2.58;;
16113;SDS011;8161;-33.910;151.156;2022-07-03T21:32:56;11.23;;;1.60;;
16113;SDS011;8161;-33.910;151.156;2022-07-03T21:36:09;17.10;;;2.20;;
16113;SDS011;8161;-33.910;151.156;2022-07-03T21:39:23;22.08;;;2.60;;
16113;SDS011;8161;-33.910;151.156;2022-07-03T21:41:50;18.63;;;3.30;;
16113;SDS011;8161;-33.910;151.156;2022-07-03T21:44:18;17.02;;;2.67;;
16113;SDS011;8161;-33.910;151.156;2022-07-03T21:47:03;18.58;;;2.65;;
16113;SDS011;8161;-33.910;151.156;2022-07-03T21:50:06;14.48;;;2.80;;
16113;SDS011;8161;-33.910;151.156;2022-07-03T21:56:33;16.48;;;3.03;;
16113;SDS011;8161;-33.910;151.156;2022-07-03T22:00:13;16.75;;;1.92;;
16113;SDS011;8161;-33.910;151.156;2022-07-03T22:02:51;17.13;;;2.55;;
16113;SDS011;8161;-33.910;151.156;2022-07-03T22:05:54;16.90;;;2.97;;
16113;SDS011;8161;-33.910;151.156;2022-07-03T22:15:20;10.52;;;2.35;;
16113;SDS011;8161;-33.910;151.156;2022-07-03T22:18:01;13.70;;;2.72;;
16113;SDS011;8161;-33.910;151.156;2022-07-03T22:23:31;21.02;;;3.13;;
16113;SDS011;8161;-33.910;151.156;2022-07-03T22:26:21;14.18;;;2.38;;
16113;SDS011;8161;-33.910;151.156;2022-07-03T22:28:48;20.40;;;3.10;;
16113;SDS011;8161;-33.910;151.156;2022-07-03T22:31:24;17.23;;;3.03;;
16113;SDS011;8161;-33.910;151.156;2022-07-03T22:34:09;19.65;;;2.75;;
16113;SDS011;8161;-33.910;151.156;2022-07-03T22:37:15;19.05;;;2.65;;
16113;SDS011;8161;-33.910;151.156;2022-07-03T22:43:33;11.73;;;2.10;;
16113;SDS011;8161;-33.910;151.156;2022-07-03T22:46:20;13.13;;;2.60;;
16113;SDS011;8161;-33.910;151.156;2022-07-03T22:52:40;16.50;;;2.58;;
16113;SDS011;8161;-33.910;151.156;2022-07-03T22:58:51;14.38;;;2.65;;
16113;SDS011;8161;-33.910;151.156;2022-07-03T23:01:56;16.05;;;2.38;;
16113;SDS011;8161;-33.910;151.156;2022-07-03T23:04:35;16.48;;;2.50;;
16113;SDS011;8161;-33.910;151.156;2022-07-03T23:07:08;10.70;;;2.30;;
16113;SDS011;8161;-33.910;151.156;2022-07-03T23:10:06;10.57;;;2.03;;
16113;SDS011;8161;-33.910;151.156;2022-07-03T23:12:47;12.95;;;2.80;;
16113;SDS011;8161;-33.910;151.156;2022-07-03T23:15:15;14.70;;;2.47;;
16113;SDS011;8161;-33.910;151.156;2022-07-03T23:18:01;8.93;;;1.50;;
16113;SDS011;8161;-33.910;151.156;2022-07-03T23:23:56;11.13;;;1.92;;
16113;SDS011;8161;-33.910;151.156;2022-07-03T23:30:36;9.13;;;1.88;;
16113;SDS011;8161;-33.910;151.156;2022-07-03T23:33:31;12.55;;;2.50;;